Attica, Ohio
Current Conditions -  °F | °C
As of 5:52 AM on Friday 31 Oct 2014 (Local Time) from KMFD Reporting Station
Broken Clouds Broken Clouds  
Wind Chill: 36°   Ceiling: 10000
Heat Index: 39°   Visibility: 10mi
Dew Point: 33°   Wind: 5mph
Humidity: 79%   Direction: 200°SSW
Pressure: 29.96"   Gusts: NA
Location:  41.06°N, 82.89°W
Report Text: KMFD 310952Z 20004KT 10SM FEW048 BKN100 04/01 A2996 RMK AO2 SLP150 T00390006
Loading
Personal Weather Stations






























Interactive Weather Map
Tropical Storm Tracking
New forecast layout! Learn more

10-Day Weather Forecast

Advertisements
Track Severe Weather on mobile